Time;durP1;ratioP1;P1;durP2;ratioP2;P2;SDS_P1;SDS_P2;PMS_P1;PMS_P2;Temp;Humidity;BMP_temperature;BMP_pressure;BME280_temperature;BME280_humidity;BME280_pressure;Samples;Min_cycle;Max_cycle;Signal;HPM_P1;HPM_P2
2022/10/30 00:01:04;;;;;;;36.08;23.20;;;;;;;;;;4978350;28;20233;-40
2022/10/30 00:03:39;;;;;;;42.35;24.48;;;;;;;;;;4978370;28;20202;-41
2022/10/30 00:06:06;;;;;;;39.20;24.45;;;;;;;;;;4977603;28;20339;-40
2022/10/30 00:08:33;;;;;;;39.60;23.40;;;;;;;;;;4977572;28;20285;-40
2022/10/30 00:11:10;;;;;;;35.78;24.10;;;;;;;;;;4977589;28;20239;-40
2022/10/30 00:13:41;;;;;;;47.08;28.27;;;;;;;;;;4977518;28;20681;-40
2022/10/30 00:16:09;;;;;;;41.38;25.40;;;;;;;;;;4977567;28;20273;-40
2022/10/30 00:18:37;;;;;;;35.03;24.55;;;;;;;;;;4960207;28;20226;-40
2022/10/30 00:21:14;;;;;;;38.42;24.05;;;;;;;;;;4977556;28;20213;-40
2022/10/30 00:23:50;;;;;;;47.75;25.33;;;;;;;;;;4977468;28;20681;-42
2022/10/30 00:26:19;;;;;;;50.75;32.42;;;;;;;;;;4977470;28;20284;-40
2022/10/30 00:28:50;;;;;;;46.05;30.55;;;;;;;;;;4960442;28;20206;-40
2022/10/30 00:31:18;;;;;;;36.33;24.52;;;;;;;;;;4977650;28;20300;-40
2022/10/30 00:33:51;;;;;;;48.28;26.13;;;;;;;;;;4977263;28;20599;-40
2022/10/30 00:36:19;;;;;;;51.70;27.17;;;;;;;;;;4977037;28;20214;-40
2022/10/30 00:38:46;;;;;;;37.72;22.30;;;;;;;;;;4977308;28;20580;-41
2022/10/30 00:41:15;;;;;;;38.70;23.42;;;;;;;;;;4960287;28;20237;-40
2022/10/30 00:43:42;;;;;;;39.70;24.02;;;;;;;;;;4977293;28;20239;-40
2022/10/30 00:46:36;;;;;;;36.97;24.50;;;;;;;;;;4977036;28;20202;-40
2022/10/30 00:49:07;;;;;;;46.35;25.33;;;;;;;;;;4957708;28;20214;-40
2022/10/30 00:51:35;;;;;;;35.45;22.27;;;;;;;;;;4977478;28;20277;-40
2022/10/30 00:54:04;;;;;;;34.92;23.10;;;;;;;;;;4944201;28;20633;-40
2022/10/30 00:56:31;;;;;;;37.88;23.48;;;;;;;;;;4959849;28;20206;-40
2022/10/30 00:59:06;;;;;;;45.45;24.77;;;;;;;;;;4977543;28;20234;-39
2022/10/30 01:01:36;;;;;;;42.17;24.95;;;;;;;;;;4937774;29;20231;-40
2022/10/30 01:04:05;;;;;;;40.88;23.80;;;;;;;;;;4956653;29;20227;-41
2022/10/30 01:06:35;;;;;;;40.08;23.17;;;;;;;;;;4939311;29;20246;-40
2022/10/30 01:09:02;;;;;;;43.40;23.27;;;;;;;;;;4939786;29;20246;-43
2022/10/30 01:11:30;;;;;;;38.65;22.88;;;;;;;;;;4939022;29;20254;-40
2022/10/30 01:14:00;;;;;;;39.75;23.13;;;;;;;;;;4939704;29;20541;-40
2022/10/30 01:16:47;;;;;;;43.78;24.00;;;;;;;;;;4971073;28;20223;-40
2022/10/30 01:19:37;;;;;;;39.80;23.05;;;;;;;;;;4939599;29;20243;-40
2022/10/30 01:22:43;;;;;;;49.10;24.55;;;;;;;;;;4939542;29;20231;-45
2022/10/30 01:25:19;;;;;;;36.55;22.25;;;;;;;;;;4939831;28;20227;-41
2022/10/30 01:28:01;;;;;;;45.22;22.60;;;;;;;;;;4949887;28;20226;-41
2022/10/30 01:30:41;;;;;;;42.53;23.52;;;;;;;;;;4974491;28;20236;-40
2022/10/30 01:33:14;;;;;;;38.63;23.50;;;;;;;;;;4958468;28;20226;-41
2022/10/30 01:35:58;;;;;;;42.03;22.30;;;;;;;;;;4975466;28;20249;-41
2022/10/30 01:38:31;;;;;;;32.03;21.30;;;;;;;;;;4958067;28;20680;-41
2022/10/30 01:40:59;;;;;;;36.95;20.80;;;;;;;;;;4974359;28;20707;-40
2022/10/30 01:43:26;;;;;;;36.83;22.48;;;;;;;;;;4958184;28;20277;-40
2022/10/30 01:45:58;;;;;;;41.90;23.27;;;;;;;;;;4950699;29;20235;-40
2022/10/30 01:48:49;;;;;;;35.08;22.95;;;;;;;;;;4922440;29;20227;-40
2022/10/30 01:51:38;;;;;;;36.53;21.00;;;;;;;;;;4939226;29;20226;-40
2022/10/30 01:54:32;;;;;;;32.80;22.08;;;;;;;;;;4939186;29;20246;-40
2022/10/30 01:57:18;;;;;;;31.42;21.88;;;;;;;;;;4962203;28;20242;-41
2022/10/30 01:59:54;;;;;;;33.10;22.60;;;;;;;;;;4958381;28;20246;-40
2022/10/30 02:02:21;;;;;;;32.55;22.00;;;;;;;;;;4990027;28;20234;-41
2022/10/30 02:04:49;;;;;;;35.22;22.35;;;;;;;;;;4952021;28;20558;-40
2022/10/30 02:07:17;;;;;;;37.45;23.58;;;;;;;;;;4946328;28;20231;-40
2022/10/30 02:09:50;;;;;;;40.22;23.73;;;;;;;;;;4923928;29;20331;-41
2022/10/30 02:12:17;;;;;;;39.25;23.60;;;;;;;;;;4922731;28;20239;-40
2022/10/30 02:14:48;;;;;;;38.60;23.70;;;;;;;;;;4923065;29;20231;-40
2022/10/30 02:17:15;;;;;;;38.60;24.20;;;;;;;;;;4955887;28;20235;-42
2022/10/30 02:19:42;;;;;;;40.53;24.70;;;;;;;;;;4942600;29;20290;-39
2022/10/30 02:22:10;;;;;;;42.10;24.38;;;;;;;;;;4959283;29;20697;-40
2022/10/30 02:24:38;;;;;;;45.92;23.02;;;;;;;;;;4942693;29;20231;-39
2022/10/30 02:27:06;;;;;;;39.95;23.55;;;;;;;;;;4959367;29;20598;-41
2022/10/30 02:29:33;;;;;;;36.53;22.27;;;;;;;;;;4959264;28;20250;-39
2022/10/30 02:32:00;;;;;;;34.40;22.13;;;;;;;;;;4942546;29;20741;-41
2022/10/30 02:34:27;;;;;;;36.22;23.60;;;;;;;;;;4959450;28;20235;-40
2022/10/30 02:36:56;;;;;;;34.20;23.00;;;;;;;;;;4942582;28;20235;-40
2022/10/30 02:39:23;;;;;;;39.53;23.98;;;;;;;;;;4958875;28;20275;-40
2022/10/30 02:41:51;;;;;;;32.17;22.73;;;;;;;;;;4942783;29;20298;-40
2022/10/30 02:44:18;;;;;;;35.65;23.27;;;;;;;;;;4941691;29;20301;-39
2022/10/30 02:46:46;;;;;;;43.42;23.95;;;;;;;;;;4955099;28;20681;-39
2022/10/30 02:49:13;;;;;;;36.50;23.10;;;;;;;;;;4960638;28;20226;-39
2022/10/30 02:51:40;;;;;;;36.08;24.08;;;;;;;;;;4960753;28;20827;-41
2022/10/30 02:54:07;;;;;;;35.55;24.15;;;;;;;;;;4977609;28;20235;-41
2022/10/30 02:56:34;;;;;;;42.53;24.67;;;;;;;;;;4960763;28;20739;-39
2022/10/30 02:59:01;;;;;;;43.45;24.00;;;;;;;;;;4960409;28;20700;-43
2022/10/30 03:01:28;;;;;;;41.72;24.10;;;;;;;;;;4961222;28;20233;-40
2022/10/30 03:03:58;;;;;;;44.10;24.90;;;;;;;;;;4960908;28;20223;-40
2022/10/30 03:06:25;;;;;;;39.25;23.50;;;;;;;;;;4977987;28;20621;-40
2022/10/30 03:08:51;;;;;;;36.47;24.15;;;;;;;;;;4960891;28;20313;-39
2022/10/30 03:11:19;;;;;;;42.00;25.90;;;;;;;;;;4960671;28;20251;-39
2022/10/30 03:13:47;;;;;;;37.42;24.02;;;;;;;;;;4978173;28;20223;-39
2022/10/30 03:16:19;;;;;;;40.33;24.35;;;;;;;;;;4950509;29;20227;-40
2022/10/30 03:18:49;;;;;;;38.92;25.38;;;;;;;;;;4925758;29;20716;-40
2022/10/30 03:21:19;;;;;;;37.60;24.85;;;;;;;;;;4941897;29;20231;-43
2022/10/30 03:23:46;;;;;;;36.63;24.92;;;;;;;;;;4958620;29;20693;-39
2022/10/30 03:26:13;;;;;;;38.40;24.83;;;;;;;;;;4958102;28;20227;-40
2022/10/30 03:29:03;;;;;;;42.17;25.35;;;;;;;;;;4957482;28;20239;-40
2022/10/30 03:31:31;;;;;;;37.25;23.85;;;;;;;;;;4941426;29;20231;-39
2022/10/30 03:34:21;;;;;;;45.20;24.40;;;;;;;;;;4950561;29;20289;-40
2022/10/30 03:36:48;;;;;;;39.47;23.13;;;;;;;;;;4941363;29;20231;-39
2022/10/30 03:39:15;;;;;;;37.40;24.30;;;;;;;;;;4941275;29;20255;-39
2022/10/30 03:41:44;;;;;;;34.33;25.00;;;;;;;;;;4941441;29;20231;-39
2022/10/30 03:44:11;;;;;;;40.90;25.00;;;;;;;;;;4957981;29;20215;-40
2022/10/30 03:46:38;;;;;;;41.67;25.52;;;;;;;;;;4957987;28;20259;-39
2022/10/30 03:49:27;;;;;;;43.80;24.50;;;;;;;;;;4941197;29;20319;-39
2022/10/30 03:51:55;;;;;;;44.03;26.75;;;;;;;;;;4941256;29;20231;-39
2022/10/30 03:54:24;;;;;;;37.13;24.52;;;;;;;;;;4941102;29;20262;-39
2022/10/30 03:56:51;;;;;;;34.80;24.67;;;;;;;;;;4941112;29;20222;-39
2022/10/30 03:59:19;;;;;;;41.83;24.52;;;;;;;;;;4972453;28;20257;-39
2022/10/30 04:02:12;;;;;;;43.45;24.35;;;;;;;;;;4940674;29;20227;-39
2022/10/30 04:04:40;;;;;;;36.97;23.38;;;;;;;;;;4941275;29;20685;-39
2022/10/30 04:07:07;;;;;;;38.03;23.45;;;;;;;;;;4940608;29;20310;-41
2022/10/30 04:09:35;;;;;;;38.13;23.75;;;;;;;;;;4940920;29;20223;-39
2022/10/30 04:12:01;;;;;;;38.53;24.67;;;;;;;;;;4940687;29;20686;-41
2022/10/30 04:14:29;;;;;;;33.97;22.92;;;;;;;;;;4940573;29;20697;-40
2022/10/30 04:16:55;;;;;;;37.15;22.58;;;;;;;;;;4940501;29;20662;-39
2022/10/30 04:19:23;;;;;;;38.33;23.17;;;;;;;;;;4972589;28;20299;-39
2022/10/30 04:21:50;;;;;;;40.20;22.55;;;;;;;;;;4940820;29;20254;-39
2022/10/30 04:24:17;;;;;;;36.83;23.80;;;;;;;;;;4940439;29;20294;-39
2022/10/30 04:26:48;;;;;;;36.92;22.05;;;;;;;;;;4940580;29;20231;-39
2022/10/30 04:29:15;;;;;;;36.92;21.88;;;;;;;;;;4971909;28;20254;-39
2022/10/30 04:31:43;;;;;;;38.40;22.67;;;;;;;;;;4940286;29;20721;-39
2022/10/30 04:34:11;;;;;;;36.45;21.75;;;;;;;;;;4940434;29;20228;-40
2022/10/30 04:36:38;;;;;;;33.53;21.33;;;;;;;;;;4940315;29;20231;-40
2022/10/30 04:39:05;;;;;;;33.70;21.83;;;;;;;;;;4940077;29;20325;-41
2022/10/30 04:41:33;;;;;;;36.25;22.30;;;;;;;;;;4939457;29;20239;-40
2022/10/30 04:44:06;;;;;;;34.72;21.50;;;;;;;;;;4939761;29;20224;-40
2022/10/30 04:46:33;;;;;;;34.10;21.10;;;;;;;;;;4940257;29;20602;-40
2022/10/30 04:49:08;;;;;;;33.65;21.55;;;;;;;;;;4939971;29;20246;-41
2022/10/30 04:51:35;;;;;;;36.22;21.42;;;;;;;;;;4956471;29;20226;-40
2022/10/30 04:54:04;;;;;;;34.88;23.02;;;;;;;;;;4939606;28;20678;-42
2022/10/30 04:56:31;;;;;;;36.60;22.48;;;;;;;;;;4980306;28;20219;-40
2022/10/30 04:58:59;;;;;;;35.60;21.88;;;;;;;;;;4950169;28;20233;-40
2022/10/30 05:01:26;;;;;;;35.83;22.38;;;;;;;;;;4987519;28;20195;-41
2022/10/30 05:03:54;;;;;;;38.85;22.10;;;;;;;;;;4946598;29;20203;-43
2022/10/30 05:06:24;;;;;;;31.00;21.05;;;;;;;;;;4955817;28;20207;-41
2022/10/30 05:08:51;;;;;;;40.38;23.20;;;;;;;;;;4944402;29;20195;-40
2022/10/30 05:11:28;;;;;;;39.90;22.48;;;;;;;;;;4949175;29;20231;-41
2022/10/30 05:13:55;;;;;;;37.85;20.65;;;;;;;;;;4955015;28;20207;-42
2022/10/30 05:16:22;;;;;;;34.95;22.85;;;;;;;;;;4959330;28;20222;-40
2022/10/30 05:18:51;;;;;;;32.47;21.65;;;;;;;;;;4964536;28;20673;-42
2022/10/30 05:21:18;;;;;;;33.42;22.10;;;;;;;;;;4957106;28;20204;-41
2022/10/30 05:23:46;;;;;;;29.80;22.60;;;;;;;;;;4931419;29;20195;-43
2022/10/30 05:26:13;;;;;;;28.95;21.33;;;;;;;;;;4947888;29;20206;-43
2022/10/30 05:28:41;;;;;;;34.60;22.35;;;;;;;;;;4946690;29;20211;-42
2022/10/30 05:31:08;;;;;;;35.60;21.70;;;;;;;;;;4939371;29;20223;-42
2022/10/30 05:33:56;;;;;;;41.63;23.35;;;;;;;;;;4954938;29;20211;-41
2022/10/30 05:36:25;;;;;;;35.08;23.33;;;;;;;;;;4980261;28;20675;-42
2022/10/30 05:38:52;;;;;;;41.92;23.20;;;;;;;;;;4951826;28;20592;-42
2022/10/30 05:41:37;;;;;;;40.55;24.05;;;;;;;;;;4977911;28;20199;-42
2022/10/30 05:44:04;;;;;;;42.05;24.00;;;;;;;;;;4942709;29;20207;-44
2022/10/30 05:46:33;;;;;;;39.60;22.92;;;;;;;;;;4947872;29;20222;-42
2022/10/30 05:49:18;;;;;;;35.75;24.00;;;;;;;;;;4951427;28;20218;-42
2022/10/30 05:51:45;;;;;;;37.67;22.85;;;;;;;;;;4945369;28;20680;-43
2022/10/30 05:54:12;;;;;;;39.60;23.60;;;;;;;;;;4967570;28;20229;-41
2022/10/30 05:56:53;;;;;;;35.42;22.80;;;;;;;;;;4938852;29;20227;-43
2022/10/30 05:59:20;;;;;;;41.30;24.55;;;;;;;;;;4939434;29;20259;-44
2022/10/30 06:01:47;;;;;;;31.38;22.63;;;;;;;;;;4950136;28;20282;-44
2022/10/30 06:04:14;;;;;;;39.00;23.33;;;;;;;;;;4953792;28;20230;-43
2022/10/30 06:06:42;;;;;;;32.60;22.38;;;;;;;;;;4940889;29;20231;-42
2022/10/30 06:09:09;;;;;;;40.85;23.17;;;;;;;;;;4929027;29;20247;-45
2022/10/30 06:11:45;;;;;;;34.42;21.27;;;;;;;;;;4957867;28;20334;-43
2022/10/30 06:14:13;;;;;;;37.33;21.83;;;;;;;;;;4935413;28;20222;-42
2022/10/30 06:16:46;;;;;;;38.28;22.30;;;;;;;;;;4958330;28;20325;-42
2022/10/30 06:19:31;;;;;;;39.45;21.95;;;;;;;;;;4974775;28;20681;-42
2022/10/30 06:22:19;;;;;;;34.08;21.75;;;;;;;;;;4968633;28;20238;-45
2022/10/30 06:24:53;;;;;;;36.17;21.40;;;;;;;;;;4938752;29;20591;-43
2022/10/30 06:27:37;;;;;;;33.85;20.58;;;;;;;;;;4938878;29;20227;-42
2022/10/30 06:30:05;;;;;;;31.88;20.67;;;;;;;;;;4938752;29;20227;-43
2022/10/30 06:32:32;;;;;;;34.10;21.48;;;;;;;;;;4938887;29;20232;-41
2022/10/30 06:34:59;;;;;;;38.25;22.05;;;;;;;;;;4955313;29;20302;-42
2022/10/30 06:37:27;;;;;;;36.60;21.80;;;;;;;;;;4938513;29;20242;-43
2022/10/30 06:39:54;;;;;;;30.38;21.10;;;;;;;;;;4945863;29;20255;-42
2022/10/30 06:42:45;;;;;;;35.45;21.90;;;;;;;;;;4954896;28;20219;-42
2022/10/30 06:45:50;;;;;;;33.83;21.60;;;;;;;;;;4896704;29;20232;-42
2022/10/30 06:48:17;;;;;;;36.65;22.00;;;;;;;;;;4881173;29;20237;-42
2022/10/30 06:50:58;;;;;;;34.15;21.92;;;;;;;;;;4892882;29;20222;-42
2022/10/30 06:53:28;;;;;;;36.42;21.50;;;;;;;;;;4865466;29;20296;-42
2022/10/30 06:56:08;;;;;;;37.88;22.45;;;;;;;;;;4896953;29;20319;-43
2022/10/30 06:58:51;;;;;;;40.65;21.33;;;;;;;;;;4867719;29;20233;-41
2022/10/30 07:01:36;;;;;;;34.83;22.80;;;;;;;;;;4896320;29;20233;-43
2022/10/30 07:04:22;;;;;;;35.45;22.02;;;;;;;;;;4898289;29;20240;-42
2022/10/30 07:06:49;;;;;;;30.55;20.85;;;;;;;;;;4884156;29;20229;-41
2022/10/30 07:09:19;;;;;;;35.75;20.63;;;;;;;;;;4899962;29;20232;-43
2022/10/30 07:11:47;;;;;;;33.83;21.65;;;;;;;;;;4899466;29;20611;-42
2022/10/30 07:14:18;;;;;;;38.22;21.83;;;;;;;;;;4900110;29;20664;-46
2022/10/30 07:16:54;;;;;;;33.38;21.02;;;;;;;;;;4913248;28;20293;-40
2022/10/30 07:19:22;;;;;;;38.80;21.20;;;;;;;;;;4957352;29;20227;-43
2022/10/30 07:21:51;;;;;;;37.92;19.98;;;;;;;;;;4957652;29;20234;-42
2022/10/30 07:24:18;;;;;;;38.05;21.85;;;;;;;;;;4957681;28;20223;-43
2022/10/30 07:27:03;;;;;;;35.25;20.73;;;;;;;;;;4958481;28;20302;-43
2022/10/30 07:29:35;;;;;;;35.72;21.17;;;;;;;;;;4951507;28;20289;-40
2022/10/30 07:32:23;;;;;;;35.95;21.05;;;;;;;;;;4952736;28;20226;-41
2022/10/30 07:35:28;;;;;;;35.58;21.08;;;;;;;;;;4889782;29;20221;-41
2022/10/30 07:38:14;;;;;;;35.97;20.73;;;;;;;;;;4880707;29;20234;-41
2022/10/30 07:40:52;;;;;;;34.53;19.75;;;;;;;;;;4911705;29;20245;-45
2022/10/30 07:43:51;;;;;;;34.45;19.55;;;;;;;;;;4879979;29;20229;-43
2022/10/30 07:46:35;;;;;;;30.00;19.15;;;;;;;;;;4864473;29;20722;-43
2022/10/30 07:49:29;;;;;;;27.92;19.45;;;;;;;;;;4865601;29;20277;-44
2022/10/30 07:52:00;;;;;;;30.00;18.08;;;;;;;;;;4861322;29;20222;-43
2022/10/30 07:54:28;;;;;;;29.48;18.98;;;;;;;;;;4861647;29;20562;-43
2022/10/30 07:57:02;;;;;;;28.00;18.67;;;;;;;;;;4863532;29;20237;-46
2022/10/30 07:59:47;;;;;;;28.77;17.30;;;;;;;;;;4877224;29;20442;-43
2022/10/30 08:02:38;;;;;;;33.47;18.17;;;;;;;;;;4869456;29;20946;-44
2022/10/30 08:05:32;;;;;;;26.85;15.35;;;;;;;;;;4842444;29;20223;-43
2022/10/30 08:08:05;;;;;;;25.15;14.73;;;;;;;;;;4829983;29;20263;-43
2022/10/30 08:10:33;;;;;;;28.27;17.15;;;;;;;;;;4824598;29;20248;-44
2022/10/30 08:13:01;;;;;;;32.08;17.13;;;;;;;;;;4832079;29;20332;-44
2022/10/30 08:15:28;;;;;;;28.45;17.10;;;;;;;;;;4839805;29;20699;-44
2022/10/30 08:17:56;;;;;;;21.90;14.18;;;;;;;;;;4824486;29;20220;-44
2022/10/30 08:20:24;;;;;;;20.42;11.80;;;;;;;;;;4903990;29;20325;-44
2022/10/30 08:22:54;;;;;;;17.90;12.10;;;;;;;;;;4882225;29;20226;-43
2022/10/30 08:25:29;;;;;;;21.42;12.55;;;;;;;;;;4894029;29;20282;-43
2022/10/30 08:27:58;;;;;;;23.50;13.75;;;;;;;;;;4879051;29;20235;-43
2022/10/30 08:30:33;;;;;;;24.15;12.93;;;;;;;;;;4894550;29;20277;-43
2022/10/30 08:33:06;;;;;;;17.85;11.20;;;;;;;;;;4878641;29;20325;-43
2022/10/30 08:35:49;;;;;;;21.48;11.38;;;;;;;;;;4878196;29;20591;-44
2022/10/30 08:38:17;;;;;;;21.20;12.52;;;;;;;;;;4906044;29;20277;-44
2022/10/30 08:40:49;;;;;;;17.70;10.45;;;;;;;;;;4902424;29;20233;-44
2022/10/30 08:43:18;;;;;;;20.15;11.02;;;;;;;;;;4939686;29;20235;-44
2022/10/30 08:45:45;;;;;;;18.23;11.85;;;;;;;;;;4917936;29;20676;-44
2022/10/30 08:48:15;;;;;;;15.90;10.02;;;;;;;;;;4917680;29;20221;-46
2022/10/30 08:50:44;;;;;;;16.90;9.77;;;;;;;;;;4918385;28;20253;-44
2022/10/30 08:53:14;;;;;;;12.15;7.30;;;;;;;;;;4917479;29;20306;-46
2022/10/30 08:55:44;;;;;;;12.55;7.93;;;;;;;;;;4917754;29;20228;-43
2022/10/30 08:58:29;;;;;;;18.92;8.45;;;;;;;;;;4918362;29;20288;-43
2022/10/30 09:00:57;;;;;;;16.17;7.72;;;;;;;;;;4917786;29;20330;-44
2022/10/30 09:03:54;;;;;;;17.88;8.98;;;;;;;;;;4928228;28;20239;-44
2022/10/30 09:06:46;;;;;;;14.70;7.63;;;;;;;;;;4937395;29;20220;-44
2022/10/30 09:09:32;;;;;;;11.98;6.88;;;;;;;;;;4918112;29;20243;-44
2022/10/30 09:12:01;;;;;;;15.32;7.43;;;;;;;;;;4927147;29;20240;-44
2022/10/30 09:14:34;;;;;;;11.25;7.03;;;;;;;;;;4941935;28;20700;-43
2022/10/30 09:17:01;;;;;;;11.48;6.78;;;;;;;;;;4951396;29;20234;-43
2022/10/30 09:19:29;;;;;;;12.75;6.28;;;;;;;;;;4943934;29;20644;-43
2022/10/30 09:21:57;;;;;;;11.23;7.25;;;;;;;;;;4935996;29;20240;-46
2022/10/30 09:24:25;;;;;;;11.60;6.00;;;;;;;;;;4945684;28;20310;-44
2022/10/30 09:26:54;;;;;;;11.25;6.72;;;;;;;;;;4947658;28;20556;-44
2022/10/30 09:29:23;;;;;;;12.43;6.55;;;;;;;;;;4936486;28;20581;-44
2022/10/30 09:32:00;;;;;;;10.85;5.75;;;;;;;;;;4934341;29;20247;-42
2022/10/30 09:34:29;;;;;;;12.75;5.95;;;;;;;;;;4935004;28;20227;-44
2022/10/30 09:37:12;;;;;;;12.15;6.07;;;;;;;;;;4935723;29;20247;-42
2022/10/30 09:39:43;;;;;;;10.07;5.68;;;;;;;;;;4929681;29;20327;-44
2022/10/30 09:42:19;;;;;;;11.70;5.65;;;;;;;;;;4924698;29;20675;-43
2022/10/30 09:44:58;;;;;;;11.82;5.35;;;;;;;;;;4932885;29;20232;-43
2022/10/30 09:47:54;;;;;;;10.38;4.15;;;;;;;;;;4917608;29;20239;-43
2022/10/30 09:50:53;;;;;;;9.52;3.90;;;;;;;;;;4917050;29;20236;-42
2022/10/30 09:53:37;;;;;;;9.93;4.82;;;;;;;;;;4927104;29;20343;-44
2022/10/30 09:56:14;;;;;;;13.32;5.18;;;;;;;;;;4935856;29;20232;-44
2022/10/30 09:59:16;;;;;;;10.13;4.72;;;;;;;;;;4920298;29;20220;-43
2022/10/30 10:01:51;;;;;;;9.48;4.70;;;;;;;;;;4933254;28;20266;-43
2022/10/30 10:04:26;;;;;;;11.52;4.68;;;;;;;;;;4934674;29;20282;-44
2022/10/30 10:07:06;;;;;;;8.50;4.25;;;;;;;;;;4916897;29;20232;-43
2022/10/30 10:09:50;;;;;;;9.45;5.05;;;;;;;;;;4906818;29;20220;-43
2022/10/30 10:12:32;;;;;;;7.45;4.60;;;;;;;;;;4952138;28;20234;-42
2022/10/30 10:15:04;;;;;;;9.95;4.47;;;;;;;;;;4979220;28;20716;-44
2022/10/30 10:17:34;;;;;;;14.20;4.50;;;;;;;;;;4939022;29;20518;-44
2022/10/30 10:20:04;;;;;;;11.40;5.07;;;;;;;;;;4938576;28;20314;-42
2022/10/30 10:22:38;;;;;;;12.80;4.78;;;;;;;;;;4955717;29;20231;-43
2022/10/30 10:25:10;;;;;;;6.28;3.63;;;;;;;;;;4969424;28;20266;-44
2022/10/30 10:27:58;;;;;;;9.55;3.95;;;;;;;;;;4938977;29;20279;-43
2022/10/30 10:30:32;;;;;;;9.48;4.18;;;;;;;;;;4955317;28;20729;-43
2022/10/30 10:33:25;;;;;;;10.18;4.47;;;;;;;;;;4938872;29;20318;-44
2022/10/30 10:36:04;;;;;;;10.82;3.80;;;;;;;;;;4952125;29;20748;-42
2022/10/30 10:38:40;;;;;;;7.90;3.83;;;;;;;;;;4939324;29;20222;-42
2022/10/30 10:41:07;;;;;;;8.05;3.75;;;;;;;;;;4943433;29;20235;-42
2022/10/30 10:44:13;;;;;;;12.52;3.90;;;;;;;;;;4959958;29;20215;-43
2022/10/30 10:46:57;;;;;;;9.55;3.67;;;;;;;;;;4957135;29;20211;-43
2022/10/30 10:49:52;;;;;;;7.88;3.80;;;;;;;;;;4960083;29;20223;-42
2022/10/30 10:52:23;;;;;;;8.82;3.88;;;;;;;;;;4960011;29;20199;-42
2022/10/30 10:55:03;;;;;;;8.88;3.95;;;;;;;;;;4943156;29;20222;-41
2022/10/30 10:57:36;;;;;;;6.95;3.45;;;;;;;;;;4959725;29;20677;-42
2022/10/30 11:00:24;;;;;;;5.80;3.38;;;;;;;;;;4953342;29;20212;-44
2022/10/30 11:02:59;;;;;;;7.28;3.60;;;;;;;;;;4955640;28;20235;-42
2022/10/30 11:05:31;;;;;;;7.55;3.55;;;;;;;;;;4941146;29;20578;-42
2022/10/30 11:08:06;;;;;;;5.55;3.08;;;;;;;;;;4940916;29;20275;-43
2022/10/30 11:10:32;;;;;;;9.25;3.88;;;;;;;;;;4923980;29;20632;-42
2022/10/30 11:13:00;;;;;;;12.88;4.35;;;;;;;;;;4940516;29;20621;-41
2022/10/30 11:15:36;;;;;;;8.60;3.92;;;;;;;;;;4940057;29;20219;-42
2022/10/30 11:18:08;;;;;;;8.55;4.13;;;;;;;;;;4923923;29;20200;-42
2022/10/30 11:21:00;;;;;;;6.38;3.55;;;;;;;;;;4951821;29;20675;-42
2022/10/30 11:23:37;;;;;;;9.65;4.28;;;;;;;;;;4959661;29;20204;-42
2022/10/30 11:26:25;;;;;;;10.70;3.88;;;;;;;;;;4959111;29;20199;-42
2022/10/30 11:29:27;;;;;;;6.93;3.95;;;;;;;;;;4942886;29;20215;-42
2022/10/30 11:32:02;;;;;;;9.02;3.67;;;;;;;;;;4866293;29;20339;-42
2022/10/30 11:34:34;;;;;;;8.50;3.42;;;;;;;;;;4881740;29;20205;-41
2022/10/30 11:37:03;;;;;;;10.15;3.33;;;;;;;;;;4881640;29;20202;-40
2022/10/30 11:39:34;;;;;;;7.18;3.92;;;;;;;;;;4881564;29;20417;-41
2022/10/30 11:42:05;;;;;;;11.05;3.83;;;;;;;;;;4881664;29;20324;-41
2022/10/30 11:44:32;;;;;;;7.05;3.45;;;;;;;;;;4881725;29;20214;-42
2022/10/30 11:46:59;;;;;;;5.50;2.97;;;;;;;;;;4881373;29;20218;-41
2022/10/30 11:49:54;;;;;;;5.65;3.35;;;;;;;;;;4897153;29;20578;-41
2022/10/30 11:52:22;;;;;;;5.97;2.95;;;;;;;;;;4859468;29;20220;-42
2022/10/30 11:54:52;;;;;;;6.32;3.83;;;;;;;;;;4881629;29;20227;-41
2022/10/30 11:57:23;;;;;;;6.28;2.85;;;;;;;;;;4881188;29;20634;-41
2022/10/30 11:59:53;;;;;;;7.60;2.97;;;;;;;;;;4865876;29;20214;-41
2022/10/30 12:02:21;;;;;;;11.05;3.08;;;;;;;;;;4881305;29;20234;-42
2022/10/30 12:04:49;;;;;;;7.25;3.72;;;;;;;;;;4881266;29;20253;-41
2022/10/30 12:07:23;;;;;;;5.30;2.55;;;;;;;;;;4913357;29;20258;-41
2022/10/30 12:09:49;;;;;;;6.30;3.30;;;;;;;;;;4959038;28;20203;-41
2022/10/30 12:12:27;;;;;;;7.10;3.50;;;;;;;;;;4958384;29;20738;-41
2022/10/30 12:14:54;;;;;;;6.80;3.17;;;;;;;;;;4958233;29;20192;-41
2022/10/30 12:17:21;;;;;;;5.82;2.90;;;;;;;;;;4958211;29;20517;-41
2022/10/30 12:19:50;;;;;;;10.20;3.80;;;;;;;;;;4958413;29;20238;-41
2022/10/30 12:22:31;;;;;;;6.05;3.50;;;;;;;;;;4957864;29;20286;-41
2022/10/30 12:25:01;;;;;;;6.55;2.42;;;;;;;;;;4958695;29;20539;-41
2022/10/30 12:27:30;;;;;;;5.60;2.30;;;;;;;;;;4941694;29;20279;-42
2022/10/30 12:30:03;;;;;;;8.95;3.03;;;;;;;;;;4941645;29;20588;-41
2022/10/30 12:32:48;;;;;;;8.88;2.45;;;;;;;;;;4958108;28;20208;-41
2022/10/30 12:35:41;;;;;;;5.63;2.45;;;;;;;;;;4941198;29;20195;-41
2022/10/30 12:38:16;;;;;;;4.63;2.45;;;;;;;;;;4941417;29;20208;-42
2022/10/30 12:40:55;;;;;;;17.58;4.60;;;;;;;;;;4957950;29;20223;-42
2022/10/30 12:43:25;;;;;;;8.73;3.40;;;;;;;;;;4941144;29;20211;-42
2022/10/30 12:46:22;;;;;;;5.75;2.47;;;;;;;;;;4957671;29;20203;-44
2022/10/30 12:49:00;;;;;;;6.32;2.33;;;;;;;;;;4941117;29;20274;-42
2022/10/30 12:51:50;;;;;;;5.63;2.33;;;;;;;;;;4955341;28;20532;-42
2022/10/30 12:54:49;;;;;;;6.65;2.60;;;;;;;;;;4954144;29;20239;-42
2022/10/30 12:57:21;;;;;;;6.25;2.85;;;;;;;;;;4953038;28;20318;-41
2022/10/30 13:00:14;;;;;;;6.47;2.83;;;;;;;;;;4951538;28;20227;-41
2022/10/30 13:02:41;;;;;;;5.47;2.47;;;;;;;;;;4964685;28;20301;-43
2022/10/30 13:05:25;;;;;;;8.90;2.60;;;;;;;;;;4956655;29;20227;-44
2022/10/30 13:08:04;;;;;;;7.03;2.53;;;;;;;;;;4939485;29;20764;-42
2022/10/30 13:10:45;;;;;;;4.93;2.42;;;;;;;;;;4940517;29;20231;-42
2022/10/30 13:13:17;;;;;;;4.82;2.35;;;;;;;;;;4935168;29;20242;-41
2022/10/30 13:15:50;;;;;;;7.50;2.30;;;;;;;;;;4936627;29;20294;-42
2022/10/30 13:18:20;;;;;;;7.10;2.42;;;;;;;;;;4937431;28;20566;-43
2022/10/30 13:21:19;;;;;;;5.63;2.30;;;;;;;;;;4937112;29;20224;-43
2022/10/30 13:23:58;;;;;;;6.20;2.40;;;;;;;;;;4935838;28;20228;-42
2022/10/30 13:26:48;;;;;;;4.97;2.30;;;;;;;;;;4940173;29;20227;-42
2022/10/30 13:29:18;;;;;;;8.88;2.83;;;;;;;;;;4904579;29;20556;-42
2022/10/30 13:32:02;;;;;;;8.70;2.60;;;;;;;;;;4916280;29;20251;-44
2022/10/30 13:34:34;;;;;;;6.10;2.35;;;;;;;;;;4924395;28;20739;-44
2022/10/30 13:37:10;;;;;;;5.25;2.53;;;;;;;;;;4915055;29;20224;-44
2022/10/30 13:39:42;;;;;;;6.72;2.20;;;;;;;;;;4918040;28;20232;-41
2022/10/30 13:42:37;;;;;;;4.63;2.72;;;;;;;;;;4945023;29;20250;-45
2022/10/30 13:45:55;;;;;;;5.57;2.70;;;;;;;;;;4916697;29;20291;-44
2022/10/30 13:49:20;;;;;;;9.15;3.17;;;;;;;;;;4908250;29;20239;-44
2022/10/30 13:51:56;;;;;;;6.03;2.75;;;;;;;;;;4858719;29;20664;-44
2022/10/30 13:54:33;;;;;;;6.25;3.03;;;;;;;;;;4860011;29;20231;-44
2022/10/30 13:57:13;;;;;;;5.68;2.60;;;;;;;;;;4895542;29;20843;-43
2022/10/30 14:00:14;;;;;;;5.25;2.60;;;;;;;;;;4916558;29;20243;-43
2022/10/30 14:02:49;;;;;;;4.55;2.13;;;;;;;;;;4917237;29;20236;-44
2022/10/30 14:05:35;;;;;;;6.18;2.35;;;;;;;;;;4936421;29;20618;-44
2022/10/30 14:08:24;;;;;;;5.28;2.33;;;;;;;;;;4923249;28;20229;-45
2022/10/30 14:10:53;;;;;;;8.27;2.78;;;;;;;;;;4936190;29;20223;-45
2022/10/30 14:13:55;;;;;;;8.10;2.38;;;;;;;;;;4937777;29;20203;-44
2022/10/30 14:16:44;;;;;;;6.15;2.70;;;;;;;;;;4940967;29;20200;-44
2022/10/30 14:19:13;;;;;;;7.72;3.85;;;;;;;;;;4940050;29;20200;-44
2022/10/30 14:21:51;;;;;;;6.20;2.38;;;;;;;;;;4940990;29;20320;-44
2022/10/30 14:24:26;;;;;;;5.55;2.22;;;;;;;;;;4925337;29;20200;-44
2022/10/30 14:27:04;;;;;;;2.33;1.75;;;;;;;;;;4917902;29;20216;-44
2022/10/30 14:29:34;;;;;;;3.65;2.00;;;;;;;;;;4932693;29;20197;-46
2022/10/30 14:32:21;;;;;;;3.70;2.00;;;;;;;;;;4940616;29;20626;-44
2022/10/30 14:34:49;;;;;;;5.20;2.10;;;;;;;;;;4933781;29;20204;-44
2022/10/30 14:37:24;;;;;;;4.82;2.45;;;;;;;;;;4940497;29;20677;-45
2022/10/30 14:39:52;;;;;;;5.00;2.53;;;;;;;;;;4940508;29;20251;-46
2022/10/30 14:42:33;;;;;;;5.60;2.53;;;;;;;;;;4939524;29;20232;-44
2022/10/30 14:45:10;;;;;;;6.10;2.50;;;;;;;;;;4940430;29;20196;-44
2022/10/30 14:47:55;;;;;;;5.93;2.75;;;;;;;;;;4922987;29;20208;-44
2022/10/30 14:50:25;;;;;;;9.18;3.05;;;;;;;;;;4940069;29;20574;-44
2022/10/30 14:53:01;;;;;;;8.93;2.80;;;;;;;;;;4940353;29;20235;-44
2022/10/30 14:55:56;;;;;;;7.75;3.00;;;;;;;;;;4940451;29;20258;-44
2022/10/30 14:58:30;;;;;;;9.18;3.28;;;;;;;;;;4940025;29;20631;-43
2022/10/30 15:01:22;;;;;;;10.90;4.15;;;;;;;;;;4940328;29;20267;-44
2022/10/30 15:04:16;;;;;;;7.10;3.40;;;;;;;;;;4939130;29;20192;-44
2022/10/30 15:06:49;;;;;;;7.00;3.22;;;;;;;;;;4939980;29;20539;-44
2022/10/30 15:09:34;;;;;;;8.32;3.88;;;;;;;;;;4940239;29;20188;-44
2022/10/30 15:12:13;;;;;;;5.72;3.08;;;;;;;;;;4938572;29;20244;-44